Time;durP1;ratioP1;P1;durP2;ratioP2;P2;SDS_P1;SDS_P2;PMS_P1;PMS_P2;Temp;Humidity;BMP_temperature;BMP_pressure;BME280_temperature;BME280_humidity;BME280_pressure;Samples;Min_cycle;Max_cycle;Signal;HPM_P1;HPM_P2
2023/01/27 02:17:40;;;;;;;13.30;10.70;;;;;;;-1.61;100.00;100204.95;102418;1285;614735;-62
2023/01/27 02:20:12;;;;;;;15.70;11.40;;;;;;;-0.96;100.00;100208.66;103568;1279;59380;-63
2023/01/27 02:23:53;;;;;;;16.60;12.70;;;;;;;-0.72;100.00;100203.80;103793;1271;59510;-64
2023/01/27 02:26:31;;;;;;;17.30;13.30;;;;;;;-0.47;100.00;100194.42;103562;1269;71259;-63
2023/01/27 02:29:02;;;;;;;20.00;12.70;;;;;;;-0.31;100.00;100196.16;103577;1266;68515;-63
2023/01/27 02:31:31;;;;;;;21.10;14.60;;;;;;;-0.20;100.00;100193.16;103871;1269;93975;-63
2023/01/27 02:34:05;;;;;;;19.10;13.20;;;;;;;-0.10;100.00;100192.05;103673;1285;60492;-62
2023/01/27 02:36:34;;;;;;;18.20;12.00;;;;;;;-0.01;100.00;100190.07;103771;1265;60229;-66
2023/01/27 02:39:02;;;;;;;21.70;14.60;;;;;;;0.12;100.00;100193.79;103835;1264;72236;-63
2023/01/27 02:41:40;;;;;;;16.90;12.00;;;;;;;0.18;100.00;100196.09;103906;1268;69367;-61
2023/01/27 02:44:07;;;;;;;;;;;;;;;0.22;100.00;100194.22;103738;1287;72940;-63
2023/01/27 02:46:35;;;;;;;14.90;11.30;;;;;;;0.20;100.00;100190.76;103835;1268;60443;-64
2023/01/27 02:49:02;;;;;;;;;;;;;;;0.27;100.00;100187.89;103782;1268;59812;-63
2023/01/27 02:51:29;;;;;;;;;;;;;;;0.31;100.00;100191.70;103871;1283;71934;-62
2023/01/27 02:53:57;;;;;;;16.50;11.90;;;;;;;0.31;100.00;100188.77;103944;1281;68799;-63
2023/01/27 02:56:25;;;;;;;15.30;11.70;;;;;;;0.28;100.00;100189.10;103965;1266;71776;-63
2023/01/27 02:58:55;;;;;;;18.00;12.50;;;;;;;0.24;100.00;100192.33;103698;1276;61316;-62
2023/01/27 03:01:27;;;;;;;17.20;11.60;;;;;;;0.24;100.00;100195.61;104012;1264;59859;-64
2023/01/27 03:03:58;;;;;;;18.30;12.60;;;;;;;0.30;100.00;100199.96;103923;1269;72409;-62
2023/01/27 03:06:26;;;;;;;17.60;12.50;;;;;;;0.31;100.00;100198.95;103776;1280;68515;-63
2023/01/27 03:08:53;;;;;;;19.90;12.70;;;;;;;0.34;100.00;100201.20;103769;1268;71570;-63
2023/01/27 03:14:07;;;;;;;17.40;12.00;;;;;;;0.44;100.00;100200.43;103858;1268;59682;-62
2023/01/27 03:19:20;;;;;;;16.10;11.40;;;;;;;0.39;100.00;100196.94;103717;1286;68766;-62
2023/01/27 03:21:49;;;;;;;14.20;10.60;;;;;;;0.36;100.00;100195.02;103767;1270;72321;-62
2023/01/27 03:24:19;;;;;;;15.70;10.60;;;;;;;0.34;100.00;100194.83;103752;1276;62160;-63
2023/01/27 03:26:46;;;;;;;15.00;11.40;;;;;;;0.37;100.00;100191.40;103810;1285;59698;-63
2023/01/27 03:32:00;;;;;;;15.70;11.10;;;;;;;0.47;100.00;100186.64;103858;1268;68500;-61
2023/01/27 03:34:28;;;;;;;15.40;10.90;;;;;;;0.41;100.00;100181.08;103981;1262;72943;-64
2023/01/27 03:48:11;;;;;;;16.40;11.60;;;;;;;0.23;100.00;100181.30;104142;1279;71624;-62
2023/01/27 03:50:42;;;;;;;18.20;12.20;;;;;;;0.21;100.00;100171.11;104118;1273;60526;-63
2023/01/27 03:53:09;;;;;;;16.10;11.50;;;;;;;0.20;100.00;100175.23;104358;1268;59675;-63
2023/01/27 03:55:37;;;;;;;17.60;12.10;;;;;;;0.19;100.00;100178.33;104127;1262;72198;-64
2023/01/27 03:58:18;;;;;;;17.30;12.30;;;;;;;0.20;100.00;100181.45;104156;1266;69461;-65
2023/01/27 04:00:47;;;;;;;17.50;12.10;;;;;;;0.19;100.00;100175.92;103968;1271;71813;-62
2023/01/27 04:08:59;;;;;;;15.90;11.30;;;;;;;0.11;100.00;100176.03;104123;1261;72406;-62
2023/01/27 04:14:12;;;;;;;14.70;11.00;;;;;;;0.11;100.00;100177.23;104070;1280;72928;-63
2023/01/27 04:16:39;;;;;;;15.60;10.90;;;;;;;0.12;100.00;100178.61;104085;1262;61231;-63
2023/01/27 04:19:07;;;;;;;17.50;11.60;;;;;;;0.13;100.00;100178.80;104227;1267;60028;-62
2023/01/27 04:21:34;;;;;;;16.70;11.10;;;;;;;0.11;100.00;100183.09;103988;1274;72105;-63
2023/01/27 04:24:03;;;;;;;14.10;10.50;;;;;;;0.08;100.00;100179.96;104214;1269;70131;-63
2023/01/27 04:26:33;;;;;;;15.40;10.90;;;;;;;0.09;100.00;100184.98;104202;1270;72390;-63
2023/01/27 04:29:00;;;;;;;13.90;10.30;;;;;;;0.09;100.00;100183.08;104124;1261;60171;-64
2023/01/27 04:31:27;;;;;;;13.60;10.00;;;;;;;0.09;100.00;100190.31;104218;1260;59757;-62
2023/01/27 04:33:55;;;;;;;12.50;9.00;;;;;;;0.06;100.00;100195.46;104224;1262;73012;-64
2023/01/27 04:36:22;;;;;;;10.80;8.80;;;;;;;0.07;100.00;100200.30;104138;1261;68593;-65
2023/01/27 04:38:49;;;;;;;14.00;10.00;;;;;;;0.07;100.00;100199.61;104203;1261;71968;-63
2023/01/27 04:41:16;;;;;;;11.20;9.50;;;;;;;0.04;100.00;100204.24;104130;1270;61318;-63
2023/01/27 04:43:43;;;;;;;12.40;9.30;;;;;;;0.02;100.00;100201.45;104234;1260;59667;-62
2023/01/27 04:46:10;;;;;;;12.80;9.50;;;;;;;0.01;100.00;100201.63;104264;1271;73158;-63
2023/01/27 04:48:37;;;;;;;13.40;9.50;;;;;;;0.03;100.00;100204.40;104136;1268;69564;-63
2023/01/27 04:51:04;;;;;;;10.70;8.80;;;;;;;0.05;100.00;100203.20;104198;1260;71852;-64
2023/01/27 04:53:31;;;;;;;14.30;10.50;;;;;;;0.05;100.00;100201.14;104260;1264;61020;-62
2023/01/27 04:56:02;;;;;;;12.80;9.20;;;;;;;0.05;100.00;100196.83;104154;1257;59860;-66
2023/01/27 04:58:30;;;;;;;14.20;9.50;;;;;;;0.05;100.00;100198.55;104141;1260;73415;-60
2023/01/27 05:00:57;;;;;;;15.60;11.10;;;;;;;0.04;100.00;100197.35;104197;1273;68468;-60
2023/01/27 05:03:28;;;;;;;16.10;11.40;;;;;;;0.05;100.00;100201.30;104234;1262;72089;-61
2023/01/27 05:05:55;;;;;;;15.00;10.40;;;;;;;0.06;100.00;100194.95;104074;1261;60436;-63
2023/01/27 05:08:21;;;;;;;15.80;11.20;;;;;;;0.08;100.00;100199.63;104294;1263;60284;-58
2023/01/27 05:10:51;;;;;;;16.80;11.80;;;;;;;0.09;100.00;100202.04;104283;1261;71800;-58
2023/01/27 05:13:18;;;;;;;15.50;11.60;;;;;;;0.09;100.00;100202.04;104455;1260;69130;-61
2023/01/27 05:15:46;;;;;;;14.90;11.00;;;;;;;0.08;100.00;100208.75;103925;1274;74343;-61
2023/01/27 05:18:14;;;;;;;16.90;11.80;;;;;;;0.06;100.00;100205.47;103941;1263;60230;-63
2023/01/27 05:20:42;;;;;;;17.70;12.00;;;;;;;0.08;100.00;100208.58;104077;1271;60378;-63
2023/01/27 05:25:55;;;;;;;19.00;12.50;;;;;;;0.06;100.00;100203.40;104002;1262;69287;-63
2023/01/27 05:28:23;;;;;;;;;;;;;;;0.01;100.00;100205.77;104272;1261;73857;-61
2023/01/27 05:30:52;;;;;;;13.90;10.10;;;;;;;-0.06;100.00;100200.35;104195;1262;61964;-64
2023/01/27 05:33:19;;;;;;;13.00;10.60;;;;;;;-0.08;100.00;100200.00;104306;1257;60246;-65
2023/01/27 05:35:50;;;;;;;13.80;10.40;;;;;;;-0.05;100.00;100200.37;104374;1258;74668;-66
2023/01/27 05:38:19;;;;;;;13.50;9.90;;;;;;;-0.05;100.00;100199.69;104321;1265;68981;-65
2023/01/27 05:40:46;;;;;;;14.40;9.60;;;;;;;-0.06;100.00;100198.80;104317;1260;71539;-65
2023/01/27 05:43:13;;;;;;;12.70;7.80;;;;;;;-0.09;100.00;100203.42;104264;1254;61180;-63
2023/01/27 05:45:40;;;;;;;14.30;9.10;;;;;;;-0.10;100.00;100206.35;104471;1253;59650;-60
2023/01/27 05:48:08;;;;;;;12.30;9.60;;;;;;;-0.09;100.00;100205.33;104477;1259;72097;-64
2023/01/27 05:50:36;;;;;;;12.30;9.30;;;;;;;-0.09;100.00;100210.16;104190;1259;68832;-61
2023/01/27 05:53:04;;;;;;;12.40;8.80;;;;;;;-0.07;100.00;100208.79;104529;1260;74696;-62
2023/01/27 05:55:32;;;;;;;14.50;9.90;;;;;;;-0.05;100.00;100208.30;104403;1259;61056;-62
2023/01/27 05:58:00;;;;;;;15.00;10.70;;;;;;;-0.01;100.00;100208.50;104597;1253;59984;-65
2023/01/27 06:00:28;;;;;;;15.90;9.50;;;;;;;-0.00;100.00;100213.86;104389;1257;73983;-63
2023/01/27 06:02:55;;;;;;;;;;;;;;;-0.01;100.00;100213.50;104572;1257;70521;-63
2023/01/27 06:05:24;;;;;;;13.40;9.30;;;;;;;-0.04;100.00;100208.48;104446;1257;72680;-62
2023/01/27 06:07:51;;;;;;;14.40;9.90;;;;;;;-0.05;100.00;100209.52;104399;1260;61823;-65
2023/01/27 06:10:19;;;;;;;;;;;;;;;-0.05;100.00;100210.55;104128;1269;61007;-63
2023/01/27 06:12:47;;;;;;;12.80;8.60;;;;;;;-0.07;100.00;100207.58;104603;1254;74306;-61
2023/01/27 06:15:15;;;;;;;14.50;9.80;;;;;;;-0.06;100.00;100206.21;104468;1265;69555;-60
2023/01/27 06:17:42;;;;;;;13.60;9.90;;;;;;;-0.04;100.00;100203.83;104524;1261;73404;-60
2023/01/27 06:20:11;;;;;;;13.00;9.80;;;;;;;-0.05;100.00;100206.76;104396;1257;60368;-60
2023/01/27 06:22:39;;;;;;;16.70;10.70;;;;;;;-0.05;100.00;100210.90;104373;1259;60185;-61
2023/01/27 06:25:07;;;;;;;12.10;7.30;;;;;;;-0.05;100.00;100212.45;104305;1267;73839;-63
2023/01/27 06:27:37;;;;;;;16.30;11.40;;;;;;;-0.05;100.00;100215.52;104241;1258;69421;-67
2023/01/27 06:30:05;;;;;;;14.80;11.20;;;;;;;-0.02;100.00;100213.84;104327;1259;72760;-63
2023/01/27 06:32:35;;;;;;;15.80;11.40;;;;;;;0.00;100.00;100216.45;104286;1261;61299;-63
2023/01/27 06:35:03;;;;;;;14.90;11.30;;;;;;;0.03;100.00;100218.53;104368;1260;60662;-62
2023/01/27 06:37:33;;;;;;;14.40;11.10;;;;;;;0.06;100.00;100219.42;104207;1259;73855;-63
2023/01/27 06:40:00;;;;;;;18.70;11.70;;;;;;;0.11;100.00;100225.50;104314;1270;69849;-61
2023/01/27 06:42:28;;;;;;;16.20;11.70;;;;;;;0.11;100.00;100222.23;104247;1259;72253;-62
2023/01/27 06:44:55;;;;;;;15.50;11.40;;;;;;;0.14;100.00;100223.12;104294;1264;60565;-61
2023/01/27 06:47:23;;;;;;;14.70;10.70;;;;;;;0.15;100.00;100221.58;104217;1258;61251;-64
2023/01/27 06:49:51;;;;;;;16.50;11.10;;;;;;;0.18;100.00;100227.64;104745;1254;75252;-62
2023/01/27 06:52:19;;;;;;;13.40;9.30;;;;;;;0.22;100.00;100225.94;104581;1257;70400;-62
2023/01/27 06:54:46;;;;;;;16.40;11.10;;;;;;;0.26;100.00;100226.66;104698;1260;72879;-66
2023/01/27 06:57:15;;;;;;;14.00;10.00;;;;;;;0.33;100.00;100221.04;104333;1267;62262;-70
2023/01/27 06:59:43;;;;;;;15.30;10.90;;;;;;;0.42;100.00;100221.80;104284;1264;61131;-65
2023/01/27 07:02:13;;;;;;;15.90;10.70;;;;;;;0.46;100.00;100224.06;104228;1255;73175;-64
2023/01/27 07:04:40;;;;;;;14.10;10.00;;;;;;;0.47;100.00;100221.48;104350;1257;70337;-65
2023/01/27 07:07:07;;;;;;;17.40;11.40;;;;;;;0.50;100.00;100222.53;104277;1254;72665;-64
2023/01/27 07:09:34;;;;;;;;;;;;;;;0.51;100.00;100222.55;104634;1254;60216;-62
2023/01/27 07:12:18;;;;;;;18.60;11.30;;;;;;;0.50;100.00;100224.45;104519;1252;60477;-63
2023/01/27 07:14:45;;;;;;;17.20;12.00;;;;;;;0.51;100.00;100225.48;104587;1253;74008;-63
2023/01/27 07:17:13;;;;;;;;;;;;;;;0.55;100.00;100229.14;104671;1254;69679;-63
2023/01/27 07:19:41;;;;;;;15.60;11.20;;;;;;;0.52;100.00;100224.80;104209;1263;73229;-63
2023/01/27 07:22:12;;;;;;;15.30;10.00;;;;;;;0.53;100.00;100225.34;104844;1254;61132;-63
2023/01/27 07:24:40;;;;;;;15.40;10.40;;;;;;;0.53;100.00;100223.95;104482;1260;61748;-63
2023/01/27 07:27:07;;;;;;;15.00;10.80;;;;;;;0.56;100.00;100223.11;104328;1257;73095;-63
2023/01/27 07:29:35;;;;;;;17.10;11.20;;;;;;;0.62;100.00;100219.52;104341;1254;69093;-65
2023/01/27 07:32:02;;;;;;;16.70;10.70;;;;;;;0.66;100.00;100217.66;104192;1267;72665;-62
2023/01/27 07:34:29;;;;;;;15.90;10.30;;;;;;;0.64;100.00;100215.05;104570;1264;60436;-63
2023/01/27 07:36:57;;;;;;;15.40;9.80;;;;;;;0.63;100.00;100215.21;104211;1270;61845;-63
2023/01/27 07:39:25;;;;;;;13.70;10.40;;;;;;;0.59;100.00;100217.27;104445;1258;73834;-62
2023/01/27 07:41:56;;;;;;;13.70;10.40;;;;;;;0.59;100.00;100218.64;104556;1257;69615;-61
2023/01/27 07:44:23;;;;;;;16.20;11.30;;;;;;;0.63;100.00;100214.00;104157;1259;72208;-63
2023/01/27 07:46:51;;;;;;;16.90;10.30;;;;;;;0.66;100.00;100214.03;104398;1258;60434;-64
2023/01/27 07:49:18;;;;;;;14.20;10.80;;;;;;;0.65;100.00;100214.38;104289;1257;60520;-61
2023/01/27 08:30:12;;;;;;;25.50;17.20;;;;;;;-1.39;100.00;100194.79;102459;1286;614607;-58
2023/01/27 08:32:39;;;;;;;25.10;16.50;;;;;;;-0.69;100.00;100194.54;103560;1271;62023;-62
2023/01/27 08:35:07;;;;;;;31.00;19.60;;;;;;;-0.43;100.00;100191.73;103710;1270;59418;-60
2023/01/27 08:37:35;;;;;;;30.40;19.60;;;;;;;-0.23;100.00;100191.05;103480;1266;71530;-62
2023/01/27 08:40:03;;;;;;;35.10;20.60;;;;;;;-0.05;100.00;100188.82;103292;1274;70981;-61
2023/01/27 08:42:31;;;;;;;31.10;20.50;;;;;;;0.09;100.00;100189.63;103646;1265;223025;-57
2023/01/27 08:44:59;;;;;;;31.10;20.90;;;;;;;0.21;100.00;100187.14;104043;1263;59343;-60
2023/01/27 08:47:27;;;;;;;31.60;19.80;;;;;;;0.31;100.00;100190.50;103943;1269;60650;-58
2023/01/27 08:49:54;;;;;;;32.50;19.60;;;;;;;0.45;100.00;100190.26;103829;1271;71837;-59
2023/01/27 08:52:22;;;;;;;36.70;21.40;;;;;;;0.54;100.00;100191.70;104002;1262;69230;-58
2023/01/27 08:54:50;;;;;;;31.60;19.40;;;;;;;0.60;100.00;100188.46;104024;1256;72521;-62
2023/01/27 08:57:17;;;;;;;31.10;19.70;;;;;;;0.66;100.00;100189.01;103930;1260;59635;-59
2023/01/27 08:59:45;;;;;;;26.00;17.40;;;;;;;0.68;100.00;100184.37;104572;1272;60970;-57
2023/01/27 09:02:12;;;;;;;29.20;18.20;;;;;;;0.71;100.00;100181.62;105034;1260;73257;-59
2023/01/27 09:04:42;;;;;;;30.20;17.90;;;;;;;0.76;100.00;100178.89;104216;1256;69743;-60
2023/01/27 09:07:09;;;;;;;32.10;18.90;;;;;;;0.86;100.00;100174.98;104241;1262;72897;-60
2023/01/27 09:09:37;;;;;;;30.60;18.20;;;;;;;0.92;100.00;100178.63;104727;1256;59837;-60
2023/01/27 09:12:03;;;;;;;27.80;16.30;;;;;;;0.95;100.00;100178.81;104303;1262;59753;-62
2023/01/27 09:14:34;;;;;;;28.10;17.00;;;;;;;0.97;100.00;100182.97;104115;1260;73595;-63
2023/01/27 09:17:01;;;;;;;;;;;;;;;0.96;100.00;100178.31;104608;1263;70886;-59
2023/01/27 09:19:29;;;;;;;27.70;15.90;;;;;;;0.94;100.00;100175.53;104538;1257;71739;-63
2023/01/27 09:21:56;;;;;;;32.80;18.00;;;;;;;1.03;100.00;100173.33;104131;1262;59711;-58
2023/01/27 09:24:24;;;;;;;29.40;17.00;;;;;;;1.07;100.00;100174.21;104466;1256;61029;-59
2023/01/27 09:26:53;;;;;;;29.20;16.40;;;;;;;1.08;100.00;100173.18;104251;1263;74188;-59
2023/01/27 09:29:20;;;;;;;33.60;16.80;;;;;;;1.09;100.00;100171.80;104237;1259;70663;-59
2023/01/27 09:31:48;;;;;;;29.00;15.60;;;;;;;1.13;100.00;100174.23;104475;1262;73738;-59
2023/01/27 09:34:16;;;;;;;34.50;17.50;;;;;;;1.22;100.00;100168.40;104489;1260;59913;-62
2023/01/27 09:36:46;;;;;;;33.20;16.30;;;;;;;1.26;100.00;100168.25;104325;1259;61395;-59
2023/01/27 09:39:14;;;;;;;22.40;14.90;;;;;;;1.29;100.00;100164.63;104713;1262;72151;-60
2023/01/27 09:42:23;;;;;;;24.00;14.00;;;;;;;1.32;100.00;100164.46;104292;1265;69925;-56
2023/01/27 09:44:56;;;;;;;23.40;14.30;;;;;;;1.30;100.00;100163.77;104771;1256;73148;-58
2023/01/27 09:47:49;;;;;;;26.80;15.50;;;;;;;1.31;100.00;100167.56;104379;1259;60054;-59
2023/01/27 09:50:38;;;;;;;27.80;16.20;;;;;;;1.34;100.00;100167.06;104634;1254;60965;-58
2023/01/27 09:53:34;;;;;;;27.20;15.50;;;;;;;1.35;100.00;100163.61;104615;1261;73585;-59
2023/01/27 09:56:13;;;;;;;23.90;14.90;;;;;;;1.35;100.00;100161.70;104743;1257;70645;-61
2023/01/27 09:58:59;;;;;;;28.80;16.00;;;;;;;1.33;100.00;100160.84;104374;1262;72872;-58
2023/01/27 10:02:00;;;;;;;33.00;16.80;;;;;;;1.33;100.00;100160.65;104556;1259;61212;-57
2023/01/27 10:04:48;;;;;;;30.70;15.70;;;;;;;1.34;100.00;100156.35;104436;1260;61292;-59
2023/01/27 10:07:30;;;;;;;25.30;14.80;;;;;;;1.37;100.00;100152.21;104361;1262;75045;-59
2023/01/27 10:10:06;;;;;;;28.60;14.50;;;;;;;1.37;100.00;100150.82;104493;1258;69145;-60
2023/01/27 10:13:06;;;;;;;29.30;14.50;;;;;;;1.41;100.00;100155.16;104810;1259;73588;-58
2023/01/27 10:16:12;;;;;;;28.20;15.60;;;;;;;1.37;100.00;100154.46;104640;1268;61940;-58
2023/01/27 10:18:58;;;;;;;34.00;16.50;;;;;;;1.40;100.00;100152.04;104553;1262;61156;-58
2023/01/27 10:21:36;;;;;;;31.50;16.10;;;;;;;1.42;100.00;100146.52;104646;1270;73264;-58
2023/01/27 10:24:24;;;;;;;32.90;16.00;;;;;;;1.45;100.00;100143.94;104776;1258;68997;-59
2023/01/27 10:26:55;;;;;;;25.70;14.90;;;;;;;1.46;100.00;100145.84;104443;1259;73620;-63
2023/01/27 10:29:28;;;;;;;29.60;14.60;;;;;;;1.49;100.00;100148.61;104699;1263;60620;-60
2023/01/27 10:31:58;;;;;;;26.30;15.00;;;;;;;1.46;100.00;100146.88;106708;1258;60244;-62
2023/01/27 12:35:57;;;;;;;9.60;6.80;;;;;;;-0.87;100.00;100097.56;101815;1295;600812;-64
2023/01/27 12:38:30;;;;;;;12.60;9.30;;;;;;;-0.24;100.00;100100.44;103766;1270;60180;-63
2023/01/27 12:41:03;;;;;;;17.50;11.60;;;;;;;0.03;100.00;100101.16;103695;1277;60992;-63
2023/01/27 12:43:31;;;;;;;17.90;12.40;;;;;;;0.22;100.00;100094.04;103680;1288;71373;-63
2023/01/27 12:46:10;;;;;;;21.20;14.10;;;;;;;0.36;100.00;100090.33;103369;1272;68715;-64
2023/01/27 12:48:47;;;;;;;20.20;13.10;;;;;;;0.49;100.00;100089.20;103556;1278;191059;-63
2023/01/27 12:51:18;;;;;;;18.00;12.70;;;;;;;0.53;100.00;100084.22;104120;1270;59641;-63
2023/01/27 12:53:48;;;;;;;19.00;12.10;;;;;;;0.58;100.00;100084.60;104001;1266;59413;-63
2023/01/27 12:56:20;;;;;;;16.20;11.60;;;;;;;0.68;100.00;100081.86;103971;1266;72599;-63
2023/01/27 12:58:58;;;;;;;18.20;12.30;;;;;;;0.78;100.00;100086.73;103993;1268;68669;-63
2023/01/27 13:01:37;;;;;;;16.70;11.30;;;;;;;0.82;100.00;100090.55;103841;1269;71932;-64
2023/01/27 13:04:13;;;;;;;15.70;10.90;;;;;;;0.83;100.00;100091.95;103871;1267;59633;-63
2023/01/27 13:06:43;;;;;;;15.40;10.70;;;;;;;0.79;100.00;100098.14;103933;1266;60371;-63
2023/01/27 13:09:49;;;;;;;15.20;9.60;;;;;;;0.79;100.00;100098.30;103928;1266;72569;-63
2023/01/27 13:12:22;;;;;;;15.90;11.00;;;;;;;0.79;100.00;100094.85;103953;1270;68945;-63
2023/01/27 13:15:15;;;;;;;12.00;8.70;;;;;;;0.80;100.00;100094.52;103981;1276;72323;-63
2023/01/27 13:17:46;;;;;;;13.90;9.20;;;;;;;0.81;100.00;100089.52;103816;1266;59717;-63
2023/01/27 13:20:23;;;;;;;12.50;9.00;;;;;;;0.79;100.00;100088.13;103816;1275;59393;-63
2023/01/27 13:23:17;;;;;;;16.30;9.90;;;;;;;0.79;100.00;100086.40;104226;1261;72344;-63
2023/01/27 13:26:10;;;;;;;12.90;9.40;;;;;;;0.77;100.00;100088.64;104396;1257;68971;-63
2023/01/27 13:28:46;;;;;;;12.70;9.80;;;;;;;0.77;100.00;100092.77;104607;1260;71884;-63
2023/01/27 13:31:38;;;;;;;11.70;8.70;;;;;;;0.78;100.00;100087.79;104195;1262;59756;-63
2023/01/27 13:34:22;;;;;;;15.80;11.30;;;;;;;0.75;100.00;100090.52;104124;1262;59691;-63
2023/01/27 13:37:07;;;;;;;16.20;11.40;;;;;;;0.71;100.00;100093.79;104279;1263;73342;-63
2023/01/27 13:40:05;;;;;;;17.10;12.10;;;;;;;0.72;100.00;100095.35;104226;1261;69352;-63
2023/01/27 13:43:11;;;;;;;13.80;10.10;;;;;;;0.71;100.00;100090.86;104214;1269;72872;-63
2023/01/27 13:45:45;;;;;;;13.90;10.10;;;;;;;0.65;100.00;100091.86;104171;1262;59825;-63
2023/01/27 13:48:28;;;;;;;17.40;11.50;;;;;;;0.59;100.00;100091.33;104255;1263;59644;-63
2023/01/27 13:50:56;;;;;;;15.20;11.70;;;;;;;0.57;100.00;100087.52;104162;1276;73336;-63
2023/01/27 13:53:25;;;;;;;17.80;11.90;;;;;;;0.63;100.00;100088.40;104270;1260;69082;-64
2023/01/27 13:56:07;;;;;;;16.20;9.80;;;;;;;0.63;100.00;100086.33;104202;1263;72067;-63
2023/01/27 13:59:08;;;;;;;15.40;9.80;;;;;;;0.55;100.00;100089.91;104170;1262;59747;-64
2023/01/27 14:01:43;;;;;;;13.80;9.70;;;;;;;0.51;100.00;100094.38;104175;1265;59707;-67
2023/01/27 14:04:30;;;;;;;19.20;11.40;;;;;;;0.48;100.00;100096.78;104161;1261;73244;-63
2023/01/27 14:07:06;;;;;;;15.50;10.90;;;;;;;0.47;100.00;100097.98;104371;1263;68667;-63
2023/01/27 14:09:41;;;;;;;14.90;11.30;;;;;;;0.55;100.00;100100.27;104282;1271;72257;-63
2023/01/27 14:12:16;;;;;;;16.30;10.90;;;;;;;0.59;100.00;100104.44;104282;1260;59677;-64
2023/01/27 14:14:55;;;;;;;16.30;10.90;;;;;;;0.58;100.00;100109.77;104157;1259;60244;-63
2023/01/27 14:17:34;;;;;;;17.60;10.90;;;;;;;0.55;100.00;100110.79;104155;1267;72970;-63
2023/01/27 14:20:15;;;;;;;18.60;12.70;;;;;;;0.50;100.00;100112.48;104253;1269;68790;-63
2023/01/27 14:23:10;;;;;;;17.40;12.20;;;;;;;0.48;100.00;100113.70;104251;1258;71949;-63
2023/01/27 14:25:51;;;;;;;18.50;13.40;;;;;;;0.53;100.00;100116.82;104258;1260;59731;-63
2023/01/27 14:28:48;;;;;;;20.20;14.20;;;;;;;0.55;100.00;100117.86;104286;1276;59773;-63
2023/01/27 14:31:21;;;;;;;18.00;13.00;;;;;;;0.48;100.00;100116.09;104260;1257;73054;-63
2023/01/27 14:34:11;;;;;;;20.80;13.40;;;;;;;0.43;100.00;100119.18;104211;1260;68802;-63
2023/01/27 14:37:09;;;;;;;20.20;13.70;;;;;;;0.43;100.00;100119.87;104246;1275;72297;-65
2023/01/27 14:39:39;;;;;;;;;;;;;;;0.51;100.00;100122.31;104252;1251;59728;-65
2023/01/27 14:42:42;;;;;;;19.30;11.40;;;;;;;0.49;100.00;100125.08;104290;1254;59673;-65
2023/01/27 14:45:16;;;;;;;17.70;11.90;;;;;;;0.47;100.00;100124.90;104332;1258;72662;-65
2023/01/27 14:48:01;;;;;;;17.30;11.40;;;;;;;0.41;100.00;100123.99;104230;1272;68845;-64
2023/01/27 14:50:50;;;;;;;19.50;12.80;;;;;;;0.31;100.00;100124.27;104237;1266;72045;-63
2023/01/27 14:53:26;;;;;;;17.70;13.10;;;;;;;0.30;100.00;100129.45;104324;1258;60618;-63
2023/01/27 14:56:10;;;;;;;18.50;13.20;;;;;;;0.36;100.00;100127.94;104313;1267;59829;-63
2023/01/27 14:58:59;;;;;;;18.60;12.80;;;;;;;0.38;100.00;100131.39;104280;1257;73204;-65
2023/01/27 15:02:05;;;;;;;19.20;12.00;;;;;;;0.38;100.00;100126.05;104241;1275;69491;-63
2023/01/27 15:04:37;;;;;;;10.80;8.30;;;;;;;0.37;100.00;100124.48;104206;1256;72785;-64
2023/01/27 15:07:13;;;;;;;17.00;10.90;;;;;;;0.36;100.00;100123.10;104399;1252;59940;-64
2023/01/27 15:09:53;;;;;;;17.40;12.00;;;;;;;0.36;100.00;100122.59;104190;1257;59766;-65
2023/01/27 15:12:34;;;;;;;20.20;13.20;;;;;;;0.39;100.00;100118.80;104305;1254;72541;-65
2023/01/27 15:15:20;;;;;;;18.70;12.10;;;;;;;0.37;100.00;100119.83;104281;1256;70180;-64
2023/01/27 15:17:55;;;;;;;17.60;11.60;;;;;;;0.34;100.00;100113.42;104293;1257;73559;-63
2023/01/27 15:20:47;;;;;;;16.60;11.60;;;;;;;0.32;100.00;100112.04;104216;1257;60412;-62
2023/01/27 15:23:26;;;;;;;17.50;11.90;;;;;;;0.27;100.00;100112.70;104230;1253;60266;-63
2023/01/27 15:25:56;;;;;;;18.60;13.50;;;;;;;0.32;100.00;100108.93;104286;1257;74090;-64
2023/01/27 15:28:28;;;;;;;20.90;14.10;;;;;;;0.38;100.00;100109.50;104285;1264;69900;-63
2023/01/27 15:31:15;;;;;;;19.50;13.50;;;;;;;0.42;100.00;100110.72;104253;1254;72326;-65
2023/01/27 15:34:03;;;;;;;18.30;12.50;;;;;;;0.41;100.00;100108.30;104272;1264;59742;-63
2023/01/27 15:36:33;;;;;;;15.20;11.10;;;;;;;0.38;100.00;100105.86;104293;1254;59717;-63
2023/01/27 15:39:08;;;;;;;16.60;12.10;;;;;;;0.31;100.00;100106.52;104344;1257;72360;-62
2023/01/27 15:42:02;;;;;;;18.40;11.70;;;;;;;0.31;100.00;100103.58;104194;1261;68992;-63
2023/01/27 15:44:37;;;;;;;19.00;13.00;;;;;;;0.33;100.00;100104.11;104274;1258;72886;-62
2023/01/27 15:47:15;;;;;;;17.80;11.20;;;;;;;0.36;100.00;100107.76;104332;1254;59759;-63
2023/01/27 15:49:46;;;;;;;17.80;11.30;;;;;;;0.35;100.00;100108.95;104344;1256;60109;-62
2023/01/27 20:04:11;;;;;;;16.70;10.00;;;;;;;-1.77;100.00;100150.08;103422;1275;62600;-61
2023/01/27 20:06:39;;;;;;;18.60;12.20;;;;;;;-1.51;100.00;100146.16;103346;1273;59363;-62
2023/01/27 20:09:08;;;;;;;19.80;12.70;;;;;;;-1.28;100.00;100139.77;103583;1281;71608;-61
2023/01/27 20:11:39;;;;;;;20.20;13.60;;;;;;;-1.11;100.00;100142.04;102861;1278;70218;-62
2023/01/27 20:14:12;;;;;;;22.00;13.80;;;;;;;-0.98;100.00;100138.42;103497;1274;127591;-62
2023/01/27 20:16:41;;;;;;;18.90;12.80;;;;;;;-0.88;100.00;100138.02;103217;1275;59432;-60
2023/01/27 20:19:15;;;;;;;18.80;13.10;;;;;;;-0.76;100.00;100136.44;103685;1266;60438;-62
2023/01/27 20:21:44;;;;;;;18.70;13.00;;;;;;;-0.60;100.00;100135.05;103458;1271;71757;-61
2023/01/27 20:24:16;;;;;;;19.40;12.00;;;;;;;-0.50;100.00;100132.23;103978;1267;68954;-61
2023/01/27 20:26:45;;;;;;;19.50;12.00;;;;;;;-0.44;100.00;100125.91;103626;1271;72896;-62
2023/01/27 20:29:14;;;;;;;16.90;12.20;;;;;;;-0.37;100.00;100126.33;103544;1267;60494;-63
2023/01/27 20:31:44;;;;;;;19.20;12.40;;;;;;;-0.31;100.00;100124.31;103529;1285;59747;-61
2023/01/27 20:34:12;;;;;;;17.50;13.30;;;;;;;-0.20;100.00;100128.38;103542;1266;73021;-62
2023/01/27 20:36:41;;;;;;;17.00;11.50;;;;;;;-0.12;100.00;100124.13;103457;1271;69918;-62
2023/01/27 20:39:09;;;;;;;16.20;12.10;;;;;;;-0.10;100.00;100126.73;103536;1266;72899;-61
2023/01/27 20:41:39;;;;;;;20.70;13.30;;;;;;;-0.09;100.00;100122.27;103692;1266;60013;-62
2023/01/27 20:44:09;;;;;;;17.60;12.20;;;;;;;-0.06;100.00;100125.22;103457;1282;59697;-62
2023/01/27 20:46:38;;;;;;;21.10;13.40;;;;;;;0.03;100.00;100123.38;103187;1266;73175;-62
2023/01/27 20:49:06;;;;;;;17.90;12.40;;;;;;;0.05;100.00;100120.83;103511;1272;69820;-62
2023/01/27 20:51:35;;;;;;;17.70;11.70;;;;;;;0.04;100.00;100117.02;103473;1272;72015;-62
2023/01/27 20:54:04;;;;;;;17.90;11.50;;;;;;;0.04;100.00;100122.20;103541;1271;60611;-62
2023/01/27 20:56:33;;;;;;;19.10;12.40;;;;;;;-0.01;100.00;100120.42;103574;1272;60206;-62
2023/01/27 20:59:01;;;;;;;19.20;13.30;;;;;;;-0.02;100.00;100114.90;103510;1266;72779;-61
2023/01/27 21:01:31;;;;;;;20.60;13.50;;;;;;;0.03;100.00;100112.36;103539;1266;69949;-62
2023/01/27 21:04:00;;;;;;;18.10;12.40;;;;;;;0.09;100.00;100110.50;103930;1271;72849;-62
2023/01/27 21:06:28;;;;;;;17.00;11.90;;;;;;;0.13;100.00;100110.54;103944;1274;61799;-62
2023/01/27 21:08:57;;;;;;;18.30;12.10;;;;;;;0.14;100.00;100110.71;103972;1260;60140;-62
2023/01/27 21:11:25;;;;;;;18.00;12.80;;;;;;;0.17;100.00;100106.59;103927;1275;73024;-63